sensor_id;sensor_type;location;lat;lon;timestamp;P1;durP1;ratioP1;P2;durP2;ratioP2
69841;SDS011;57138;51.326;-0.068;2022-09-09T00:00:19;27.08;;;4.72;;
69841;SDS011;57138;51.326;-0.068;2022-09-09T00:02:54;23.45;;;5.25;;
69841;SDS011;57138;51.326;-0.068;2022-09-09T00:08:25;19.95;;;5.07;;
69841;SDS011;57138;51.326;-0.068;2022-09-09T00:11:23;25.10;;;4.57;;
69841;SDS011;57138;51.326;-0.068;2022-09-09T00:13:53;25.15;;;4.70;;
69841;SDS011;57138;51.326;-0.068;2022-09-09T00:16:28;20.08;;;4.20;;
69841;SDS011;57138;51.326;-0.068;2022-09-09T00:24:55;38.35;;;5.90;;
69841;SDS011;57138;51.326;-0.068;2022-09-09T00:27:21;23.35;;;5.50;;
69841;SDS011;57138;51.326;-0.068;2022-09-09T00:29:53;27.95;;;5.97;;
69841;SDS011;57138;51.326;-0.068;2022-09-09T00:32:22;23.10;;;6.03;;
69841;SDS011;57138;51.326;-0.068;2022-09-09T00:35:00;27.42;;;6.60;;
69841;SDS011;57138;51.326;-0.068;2022-09-09T00:37:30;20.05;;;5.85;;
69841;SDS011;57138;51.326;-0.068;2022-09-09T00:40:01;27.63;;;5.93;;
69841;SDS011;57138;51.326;-0.068;2022-09-09T00:48:00;24.55;;;6.22;;
69841;SDS011;57138;51.326;-0.068;2022-09-09T00:53:30;32.55;;;7.00;;
69841;SDS011;57138;51.326;-0.068;2022-09-09T00:56:23;27.38;;;6.20;;
69841;SDS011;57138;51.326;-0.068;2022-09-09T00:59:01;29.63;;;6.38;;
69841;SDS011;57138;51.326;-0.068;2022-09-09T01:01:39;30.55;;;6.93;;
69841;SDS011;57138;51.326;-0.068;2022-09-09T01:04:08;21.38;;;5.97;;
69841;SDS011;57138;51.326;-0.068;2022-09-09T01:06:41;23.17;;;5.30;;
69841;SDS011;57138;51.326;-0.068;2022-09-09T01:12:03;27.63;;;5.47;;
69841;SDS011;57138;51.326;-0.068;2022-09-09T01:17:04;34.38;;;6.90;;
69841;SDS011;57138;51.326;-0.068;2022-09-09T01:20:03;27.38;;;6.45;;
69841;SDS011;57138;51.326;-0.068;2022-09-09T01:27:51;26.67;;;4.88;;
69841;SDS011;57138;51.326;-0.068;2022-09-09T01:30:20;20.27;;;5.03;;
69841;SDS011;57138;51.326;-0.068;2022-09-09T01:32:47;25.50;;;4.70;;
69841;SDS011;57138;51.326;-0.068;2022-09-09T01:35:21;18.45;;;4.43;;
69841;SDS011;57138;51.326;-0.068;2022-09-09T01:38:07;26.15;;;4.68;;
69841;SDS011;57138;51.326;-0.068;2022-09-09T01:40:34;14.70;;;4.80;;
69841;SDS011;57138;51.326;-0.068;2022-09-09T01:43:00;26.27;;;5.57;;
69841;SDS011;57138;51.326;-0.068;2022-09-09T01:45:26;36.17;;;5.78;;
69841;SDS011;57138;51.326;-0.068;2022-09-09T01:47:52;22.38;;;4.53;;
69841;SDS011;57138;51.326;-0.068;2022-09-09T01:50:19;31.10;;;5.88;;
69841;SDS011;57138;51.326;-0.068;2022-09-09T01:52:47;25.90;;;4.68;;
69841;SDS011;57138;51.326;-0.068;2022-09-09T01:55:15;19.23;;;4.75;;
69841;SDS011;57138;51.326;-0.068;2022-09-09T01:57:58;21.05;;;3.90;;
69841;SDS011;57138;51.326;-0.068;2022-09-09T02:00:35;20.73;;;4.25;;
69841;SDS011;57138;51.326;-0.068;2022-09-09T02:03:11;19.27;;;4.45;;
69841;SDS011;57138;51.326;-0.068;2022-09-09T02:08:29;18.67;;;3.78;;
69841;SDS011;57138;51.326;-0.068;2022-09-09T02:13:40;27.30;;;5.32;;
69841;SDS011;57138;51.326;-0.068;2022-09-09T02:16:08;18.30;;;4.43;;
69841;SDS011;57138;51.326;-0.068;2022-09-09T02:19:07;26.52;;;3.85;;
69841;SDS011;57138;51.326;-0.068;2022-09-09T02:21:46;18.83;;;3.53;;
69841;SDS011;57138;51.326;-0.068;2022-09-09T02:24:12;22.42;;;4.22;;
69841;SDS011;57138;51.326;-0.068;2022-09-09T02:26:41;20.08;;;3.85;;
69841;SDS011;57138;51.326;-0.068;2022-09-09T02:29:20;33.03;;;4.45;;
69841;SDS011;57138;51.326;-0.068;2022-09-09T02:32:00;25.40;;;3.95;;
69841;SDS011;57138;51.326;-0.068;2022-09-09T02:34:29;31.05;;;5.57;;
69841;SDS011;57138;51.326;-0.068;2022-09-09T02:36:57;18.05;;;4.38;;
69841;SDS011;57138;51.326;-0.068;2022-09-09T02:39:26;34.53;;;4.88;;
69841;SDS011;57138;51.326;-0.068;2022-09-09T02:41:52;16.30;;;4.03;;
69841;SDS011;57138;51.326;-0.068;2022-09-09T02:44:18;22.48;;;4.57;;
69841;SDS011;57138;51.326;-0.068;2022-09-09T02:52:07;34.65;;;4.80;;
69841;SDS011;57138;51.326;-0.068;2022-09-09T02:54:40;25.38;;;4.57;;
69841;SDS011;57138;51.326;-0.068;2022-09-09T02:57:12;30.00;;;4.72;;
69841;SDS011;57138;51.326;-0.068;2022-09-09T02:59:43;24.92;;;4.95;;
69841;SDS011;57138;51.326;-0.068;2022-09-09T03:02:10;27.88;;;5.07;;
69841;SDS011;57138;51.326;-0.068;2022-09-09T03:04:39;23.55;;;4.43;;
69841;SDS011;57138;51.326;-0.068;2022-09-09T03:07:06;30.95;;;5.82;;
69841;SDS011;57138;51.326;-0.068;2022-09-09T03:09:32;24.30;;;5.35;;
69841;SDS011;57138;51.326;-0.068;2022-09-09T03:11:58;17.00;;;5.03;;
69841;SDS011;57138;51.326;-0.068;2022-09-09T03:14:25;20.83;;;4.85;;
69841;SDS011;57138;51.326;-0.068;2022-09-09T03:16:51;29.52;;;5.55;;
69841;SDS011;57138;51.326;-0.068;2022-09-09T03:19:17;25.13;;;4.72;;
69841;SDS011;57138;51.326;-0.068;2022-09-09T03:21:45;23.73;;;4.95;;
69841;SDS011;57138;51.326;-0.068;2022-09-09T03:24:11;27.33;;;5.07;;
69841;SDS011;57138;51.326;-0.068;2022-09-09T03:26:37;23.17;;;5.20;;
69841;SDS011;57138;51.326;-0.068;2022-09-09T03:29:04;20.30;;;4.97;;
69841;SDS011;57138;51.326;-0.068;2022-09-09T03:31:31;24.83;;;5.90;;
69841;SDS011;57138;51.326;-0.068;2022-09-09T03:34:01;24.45;;;6.20;;
69841;SDS011;57138;51.326;-0.068;2022-09-09T03:36:28;20.80;;;5.85;;
69841;SDS011;57138;51.326;-0.068;2022-09-09T03:38:54;27.27;;;5.20;;
69841;SDS011;57138;51.326;-0.068;2022-09-09T03:41:20;23.13;;;6.53;;
69841;SDS011;57138;51.326;-0.068;2022-09-09T03:43:52;23.20;;;6.45;;
69841;SDS011;57138;51.326;-0.068;2022-09-09T03:46:19;21.92;;;6.22;;
69841;SDS011;57138;51.326;-0.068;2022-09-09T03:48:46;24.90;;;6.03;;
69841;SDS011;57138;51.326;-0.068;2022-09-09T03:51:12;33.67;;;7.50;;
69841;SDS011;57138;51.326;-0.068;2022-09-09T03:53:38;29.40;;;7.82;;
69841;SDS011;57138;51.326;-0.068;2022-09-09T03:56:04;25.40;;;7.20;;
69841;SDS011;57138;51.326;-0.068;2022-09-09T03:58:31;28.48;;;6.32;;
69841;SDS011;57138;51.326;-0.068;2022-09-09T04:03:26;19.48;;;6.00;;
69841;SDS011;57138;51.326;-0.068;2022-09-09T04:05:52;27.92;;;6.82;;
69841;SDS011;57138;51.326;-0.068;2022-09-09T04:08:18;23.30;;;6.82;;
69841;SDS011;57138;51.326;-0.068;2022-09-09T04:10:45;23.73;;;7.25;;
69841;SDS011;57138;51.326;-0.068;2022-09-09T04:13:12;29.27;;;6.60;;
69841;SDS011;57138;51.326;-0.068;2022-09-09T04:15:40;22.70;;;6.90;;
69841;SDS011;57138;51.326;-0.068;2022-09-09T04:18:05;32.70;;;7.43;;
69841;SDS011;57138;51.326;-0.068;2022-09-09T04:20:32;24.85;;;7.75;;
69841;SDS011;57138;51.326;-0.068;2022-09-09T04:22:59;23.23;;;8.25;;
69841;SDS011;57138;51.326;-0.068;2022-09-09T04:25:26;31.83;;;8.27;;
69841;SDS011;57138;51.326;-0.068;2022-09-09T04:27:55;27.40;;;8.27;;
69841;SDS011;57138;51.326;-0.068;2022-09-09T04:30:22;34.60;;;8.07;;
69841;SDS011;57138;51.326;-0.068;2022-09-09T04:32:48;28.60;;;8.65;;
69841;SDS011;57138;51.326;-0.068;2022-09-09T04:35:14;22.52;;;7.68;;
69841;SDS011;57138;51.326;-0.068;2022-09-09T04:37:40;30.08;;;10.63;;
69841;SDS011;57138;51.326;-0.068;2022-09-09T04:40:06;34.92;;;8.52;;
69841;SDS011;57138;51.326;-0.068;2022-09-09T04:42:36;26.85;;;8.77;;
69841;SDS011;57138;51.326;-0.068;2022-09-09T04:45:02;23.30;;;8.73;;
69841;SDS011;57138;51.326;-0.068;2022-09-09T04:47:28;29.63;;;10.13;;
69841;SDS011;57138;51.326;-0.068;2022-09-09T04:49:55;24.52;;;8.13;;
69841;SDS011;57138;51.326;-0.068;2022-09-09T04:52:21;24.63;;;8.35;;
69841;SDS011;57138;51.326;-0.068;2022-09-09T04:54:47;35.15;;;9.00;;
69841;SDS011;57138;51.326;-0.068;2022-09-09T04:57:13;24.63;;;9.48;;
69841;SDS011;57138;51.326;-0.068;2022-09-09T04:59:39;29.23;;;9.32;;
69841;SDS011;57138;51.326;-0.068;2022-09-09T05:02:05;27.23;;;8.95;;
69841;SDS011;57138;51.326;-0.068;2022-09-09T05:04:31;39.20;;;9.68;;
69841;SDS011;57138;51.326;-0.068;2022-09-09T05:06:56;24.90;;;9.70;;
69841;SDS011;57138;51.326;-0.068;2022-09-09T05:09:22;24.70;;;9.60;;
69841;SDS011;57138;51.326;-0.068;2022-09-09T05:11:47;35.15;;;8.77;;
69841;SDS011;57138;51.326;-0.068;2022-09-09T05:14:14;27.30;;;9.10;;
69841;SDS011;57138;51.326;-0.068;2022-09-09T05:16:40;31.13;;;9.70;;
69841;SDS011;57138;51.326;-0.068;2022-09-09T05:19:06;31.08;;;9.30;;
69841;SDS011;57138;51.326;-0.068;2022-09-09T05:21:34;32.05;;;10.40;;
69841;SDS011;57138;51.326;-0.068;2022-09-09T05:24:01;31.98;;;10.70;;
69841;SDS011;57138;51.326;-0.068;2022-09-09T05:26:27;30.48;;;10.65;;
69841;SDS011;57138;51.326;-0.068;2022-09-09T05:28:54;26.98;;;10.43;;
69841;SDS011;57138;51.326;-0.068;2022-09-09T05:31:20;22.85;;;9.60;;
69841;SDS011;57138;51.326;-0.068;2022-09-09T05:33:46;37.28;;;10.57;;
69841;SDS011;57138;51.326;-0.068;2022-09-09T05:36:15;35.10;;;11.10;;
69841;SDS011;57138;51.326;-0.068;2022-09-09T05:38:43;28.38;;;10.80;;
69841;SDS011;57138;51.326;-0.068;2022-09-09T05:41:09;35.90;;;11.45;;
69841;SDS011;57138;51.326;-0.068;2022-09-09T05:43:36;32.75;;;12.00;;
69841;SDS011;57138;51.326;-0.068;2022-09-09T05:46:04;40.90;;;10.98;;
69841;SDS011;57138;51.326;-0.068;2022-09-09T05:48:31;30.20;;;11.27;;
69841;SDS011;57138;51.326;-0.068;2022-09-09T05:50:59;34.90;;;11.93;;
69841;SDS011;57138;51.326;-0.068;2022-09-09T05:53:26;38.88;;;11.63;;
69841;SDS011;57138;51.326;-0.068;2022-09-09T05:56:14;29.17;;;12.13;;
69841;SDS011;57138;51.326;-0.068;2022-09-09T05:58:40;38.80;;;11.27;;
69841;SDS011;57138;51.326;-0.068;2022-09-09T06:04:01;30.10;;;10.80;;
69841;SDS011;57138;51.326;-0.068;2022-09-09T06:06:35;29.35;;;10.25;;
69841;SDS011;57138;51.326;-0.068;2022-09-09T06:09:04;24.10;;;10.55;;
69841;SDS011;57138;51.326;-0.068;2022-09-09T06:11:34;31.83;;;11.38;;
69841;SDS011;57138;51.326;-0.068;2022-09-09T06:14:01;33.22;;;11.05;;
69841;SDS011;57138;51.326;-0.068;2022-09-09T06:16:27;36.97;;;10.82;;
69841;SDS011;57138;51.326;-0.068;2022-09-09T06:18:55;30.30;;;11.27;;
69841;SDS011;57138;51.326;-0.068;2022-09-09T06:21:22;30.50;;;10.80;;
69841;SDS011;57138;51.326;-0.068;2022-09-09T06:23:53;25.52;;;9.70;;
69841;SDS011;57138;51.326;-0.068;2022-09-09T06:26:21;21.38;;;9.57;;
69841;SDS011;57138;51.326;-0.068;2022-09-09T06:28:51;25.73;;;9.93;;
69841;SDS011;57138;51.326;-0.068;2022-09-09T06:31:22;22.73;;;9.43;;
69841;SDS011;57138;51.326;-0.068;2022-09-09T06:33:50;23.13;;;9.75;;
69841;SDS011;57138;51.326;-0.068;2022-09-09T06:36:17;23.90;;;8.75;;
69841;SDS011;57138;51.326;-0.068;2022-09-09T06:38:45;25.88;;;9.32;;
69841;SDS011;57138;51.326;-0.068;2022-09-09T06:41:13;28.92;;;10.07;;
69841;SDS011;57138;51.326;-0.068;2022-09-09T06:43:40;28.15;;;10.07;;
69841;SDS011;57138;51.326;-0.068;2022-09-09T06:46:13;25.48;;;9.38;;
69841;SDS011;57138;51.326;-0.068;2022-09-09T06:48:44;24.60;;;9.07;;
69841;SDS011;57138;51.326;-0.068;2022-09-09T06:51:12;23.05;;;8.60;;
69841;SDS011;57138;51.326;-0.068;2022-09-09T06:53:40;23.05;;;9.48;;
69841;SDS011;57138;51.326;-0.068;2022-09-09T06:58:36;26.02;;;9.98;;
69841;SDS011;57138;51.326;-0.068;2022-09-09T07:01:08;23.95;;;10.43;;
69841;SDS011;57138;51.326;-0.068;2022-09-09T07:03:35;24.73;;;11.35;;
69841;SDS011;57138;51.326;-0.068;2022-09-09T07:06:00;25.05;;;10.52;;
69841;SDS011;57138;51.326;-0.068;2022-09-09T07:08:26;27.02;;;9.95;;
69841;SDS011;57138;51.326;-0.068;2022-09-09T07:10:53;31.73;;;12.30;;
69841;SDS011;57138;51.326;-0.068;2022-09-09T07:13:28;23.25;;;10.02;;
69841;SDS011;57138;51.326;-0.068;2022-09-09T07:15:53;23.42;;;10.15;;
69841;SDS011;57138;51.326;-0.068;2022-09-09T07:18:21;22.73;;;9.50;;
69841;SDS011;57138;51.326;-0.068;2022-09-09T07:20:53;22.58;;;10.40;;
69841;SDS011;57138;51.326;-0.068;2022-09-09T07:23:22;19.10;;;11.13;;
69841;SDS011;57138;51.326;-0.068;2022-09-09T07:25:49;22.60;;;10.32;;
69841;SDS011;57138;51.326;-0.068;2022-09-09T07:28:15;20.75;;;8.00;;
69841;SDS011;57138;51.326;-0.068;2022-09-09T07:30:42;18.27;;;8.50;;
69841;SDS011;57138;51.326;-0.068;2022-09-09T07:33:08;17.60;;;8.20;;
69841;SDS011;57138;51.326;-0.068;2022-09-09T07:35:35;18.42;;;8.82;;
69841;SDS011;57138;51.326;-0.068;2022-09-09T07:38:02;20.85;;;8.70;;
69841;SDS011;57138;51.326;-0.068;2022-09-09T07:40:32;16.27;;;8.32;;
69841;SDS011;57138;51.326;-0.068;2022-09-09T07:42:59;15.52;;;7.68;;
69841;SDS011;57138;51.326;-0.068;2022-09-09T07:45:25;13.55;;;7.68;;
69841;SDS011;57138;51.326;-0.068;2022-09-09T07:47:53;19.38;;;8.55;;
69841;SDS011;57138;51.326;-0.068;2022-09-09T07:50:22;17.75;;;8.00;;
69841;SDS011;57138;51.326;-0.068;2022-09-09T07:52:48;15.85;;;7.68;;
69841;SDS011;57138;51.326;-0.068;2022-09-09T07:55:15;22.48;;;9.38;;
69841;SDS011;57138;51.326;-0.068;2022-09-09T07:57:41;13.73;;;8.55;;
69841;SDS011;57138;51.326;-0.068;2022-09-09T08:00:07;16.35;;;8.25;;
69841;SDS011;57138;51.326;-0.068;2022-09-09T08:02:35;21.25;;;8.10;;
69841;SDS011;57138;51.326;-0.068;2022-09-09T08:05:02;15.15;;;7.32;;
69841;SDS011;57138;51.326;-0.068;2022-09-09T08:07:31;15.27;;;7.38;;
69841;SDS011;57138;51.326;-0.068;2022-09-09T08:09:56;25.77;;;8.90;;
69841;SDS011;57138;51.326;-0.068;2022-09-09T08:12:22;17.40;;;7.82;;
69841;SDS011;57138;51.326;-0.068;2022-09-09T08:14:48;17.10;;;8.73;;
69841;SDS011;57138;51.326;-0.068;2022-09-09T08:17:14;16.08;;;7.50;;
69841;SDS011;57138;51.326;-0.068;2022-09-09T08:19:41;13.30;;;7.65;;
69841;SDS011;57138;51.326;-0.068;2022-09-09T08:22:06;16.02;;;8.68;;
69841;SDS011;57138;51.326;-0.068;2022-09-09T08:24:32;10.65;;;6.35;;
69841;SDS011;57138;51.326;-0.068;2022-09-09T08:26:58;17.00;;;7.35;;
69841;SDS011;57138;51.326;-0.068;2022-09-09T08:29:24;16.70;;;7.47;;
69841;SDS011;57138;51.326;-0.068;2022-09-09T08:31:51;16.63;;;6.25;;
69841;SDS011;57138;51.326;-0.068;2022-09-09T08:34:19;13.52;;;5.35;;
69841;SDS011;57138;51.326;-0.068;2022-09-09T08:36:46;11.15;;;5.63;;
69841;SDS011;57138;51.326;-0.068;2022-09-09T08:39:14;12.80;;;5.70;;
69841;SDS011;57138;51.326;-0.068;2022-09-09T08:44:20;11.65;;;5.65;;
69841;SDS011;57138;51.326;-0.068;2022-09-09T08:46:58;9.43;;;5.43;;
69841;SDS011;57138;51.326;-0.068;2022-09-09T08:58:14;13.85;;;5.70;;
69841;SDS011;57138;51.326;-0.068;2022-09-09T09:01:00;14.93;;;6.10;;
69841;SDS011;57138;51.326;-0.068;2022-09-09T09:08:57;13.57;;;5.70;;
69841;SDS011;57138;51.326;-0.068;2022-09-09T09:11:39;11.05;;;5.47;;
69841;SDS011;57138;51.326;-0.068;2022-09-09T09:14:18;11.00;;;5.47;;
69841;SDS011;57138;51.326;-0.068;2022-09-09T09:16:53;12.45;;;6.18;;
69841;SDS011;57138;51.326;-0.068;2022-09-09T09:19:22;12.98;;;7.15;;
69841;SDS011;57138;51.326;-0.068;2022-09-09T09:21:53;14.38;;;7.70;;
69841;SDS011;57138;51.326;-0.068;2022-09-09T09:24:57;14.48;;;8.45;;
69841;SDS011;57138;51.326;-0.068;2022-09-09T09:27:42;20.90;;;8.98;;
69841;SDS011;57138;51.326;-0.068;2022-09-09T09:30:16;21.38;;;9.68;;
69841;SDS011;57138;51.326;-0.068;2022-09-09T09:32:48;18.55;;;10.80;;
69841;SDS011;57138;51.326;-0.068;2022-09-09T09:35:28;22.20;;;12.68;;
69841;SDS011;57138;51.326;-0.068;2022-09-09T09:37:53;19.55;;;11.23;;
69841;SDS011;57138;51.326;-0.068;2022-09-09T09:40:20;19.70;;;10.65;;
69841;SDS011;57138;51.326;-0.068;2022-09-09T09:42:51;28.65;;;11.98;;
69841;SDS011;57138;51.326;-0.068;2022-09-09T09:46:03;24.70;;;11.27;;
69841;SDS011;57138;51.326;-0.068;2022-09-09T09:48:10;21.67;;;11.23;;
69841;SDS011;57138;51.326;-0.068;2022-09-09T09:50:54;20.58;;;11.00;;
69841;SDS011;57138;51.326;-0.068;2022-09-09T09:53:29;23.15;;;10.90;;
69841;SDS011;57138;51.326;-0.068;2022-09-09T09:56:03;18.67;;;11.55;;
69841;SDS011;57138;51.326;-0.068;2022-09-09T09:58:33;21.92;;;11.40;;
69841;SDS011;57138;51.326;-0.068;2022-09-09T10:01:25;27.30;;;13.85;;
69841;SDS011;57138;51.326;-0.068;2022-09-09T10:04:29;22.85;;;11.70;;
69841;SDS011;57138;51.326;-0.068;2022-09-09T10:06:49;27.13;;;12.82;;
69841;SDS011;57138;51.326;-0.068;2022-09-09T10:09:24;17.52;;;11.20;;
69841;SDS011;57138;51.326;-0.068;2022-09-09T10:15:15;17.45;;;10.32;;
69841;SDS011;57138;51.326;-0.068;2022-09-09T10:21:01;20.92;;;10.32;;
69841;SDS011;57138;51.326;-0.068;2022-09-09T10:23:42;17.63;;;10.02;;
69841;SDS011;57138;51.326;-0.068;2022-09-09T10:26:32;25.15;;;12.07;;
69841;SDS011;57138;51.326;-0.068;2022-09-09T10:37:13;21.13;;;12.73;;
69841;SDS011;57138;51.326;-0.068;2022-09-09T10:40:13;18.35;;;9.57;;
69841;SDS011;57138;51.326;-0.068;2022-09-09T10:42:42;18.45;;;8.13;;
69841;SDS011;57138;51.326;-0.068;2022-09-09T10:45:15;12.98;;;7.38;;
69841;SDS011;57138;51.326;-0.068;2022-09-09T10:50:28;12.98;;;6.45;;
69841;SDS011;57138;51.326;-0.068;2022-09-09T10:53:14;16.33;;;6.40;;
69841;SDS011;57138;51.326;-0.068;2022-09-09T10:55:52;12.60;;;5.70;;
69841;SDS011;57138;51.326;-0.068;2022-09-09T10:58:27;9.82;;;5.22;;
69841;SDS011;57138;51.326;-0.068;2022-09-09T11:01:00;11.75;;;5.35;;
69841;SDS011;57138;51.326;-0.068;2022-09-09T11:03:32;14.40;;;5.93;;
69841;SDS011;57138;51.326;-0.068;2022-09-09T11:06:04;12.73;;;4.85;;
69841;SDS011;57138;51.326;-0.068;2022-09-09T11:08:34;15.25;;;5.93;;
69841;SDS011;57138;51.326;-0.068;2022-09-09T11:18:55;8.82;;;4.68;;
69841;SDS011;57138;51.326;-0.068;2022-09-09T11:21:40;11.68;;;6.05;;
69841;SDS011;57138;51.326;-0.068;2022-09-09T11:24:15;10.73;;;5.60;;
69841;SDS011;57138;51.326;-0.068;2022-09-09T11:27:00;12.88;;;5.70;;
69841;SDS011;57138;51.326;-0.068;2022-09-09T11:32:32;15.13;;;6.47;;
69841;SDS011;57138;51.326;-0.068;2022-09-09T11:41:12;11.43;;;5.75;;
69841;SDS011;57138;51.326;-0.068;2022-09-09T11:46:07;18.30;;;6.32;;
69841;SDS011;57138;51.326;-0.068;2022-09-09T11:48:38;11.88;;;5.30;;
69841;SDS011;57138;51.326;-0.068;2022-09-09T11:54:25;12.52;;;4.13;;
69841;SDS011;57138;51.326;-0.068;2022-09-09T11:56:54;20.13;;;4.70;;
69841;SDS011;57138;51.326;-0.068;2022-09-09T11:59:20;14.55;;;4.18;;
69841;SDS011;57138;51.326;-0.068;2022-09-09T12:05:07;6.13;;;3.45;;
69841;SDS011;57138;51.326;-0.068;2022-09-09T12:07:51;10.32;;;3.80;;
69841;SDS011;57138;51.326;-0.068;2022-09-09T12:10:27;11.13;;;3.88;;
69841;SDS011;57138;51.326;-0.068;2022-09-09T12:13:07;10.70;;;4.32;;
69841;SDS011;57138;51.326;-0.068;2022-09-09T12:15:54;8.80;;;4.15;;
69841;SDS011;57138;51.326;-0.068;2022-09-09T12:18:39;8.23;;;4.25;;
69841;SDS011;57138;51.326;-0.068;2022-09-09T12:21:10;7.68;;;4.05;;
69841;SDS011;57138;51.326;-0.068;2022-09-09T12:23:53;9.10;;;4.65;;
69841;SDS011;57138;51.326;-0.068;2022-09-09T12:26:25;7.57;;;4.40;;
69841;SDS011;57138;51.326;-0.068;2022-09-09T12:31:52;9.02;;;4.55;;
69841;SDS011;57138;51.326;-0.068;2022-09-09T12:34:38;9.85;;;4.50;;
69841;SDS011;57138;51.326;-0.068;2022-09-09T12:37:11;9.57;;;4.80;;
69841;SDS011;57138;51.326;-0.068;2022-09-09T12:40:02;11.85;;;6.25;;
69841;SDS011;57138;51.326;-0.068;2022-09-09T12:42:43;12.60;;;4.95;;
69841;SDS011;57138;51.326;-0.068;2022-09-09T12:45:19;13.35;;;5.85;;
69841;SDS011;57138;51.326;-0.068;2022-09-09T12:47:49;12.25;;;6.63;;
69841;SDS011;57138;51.326;-0.068;2022-09-09T12:50:23;8.65;;;5.20;;
69841;SDS011;57138;51.326;-0.068;2022-09-09T12:52:52;11.27;;;4.50;;
69841;SDS011;57138;51.326;-0.068;2022-09-09T12:55:21;9.98;;;5.47;;
69841;SDS011;57138;51.326;-0.068;2022-09-09T12:57:50;9.95;;;4.80;;
69841;SDS011;57138;51.326;-0.068;2022-09-09T13:00:21;11.35;;;5.60;;
69841;SDS011;57138;51.326;-0.068;2022-09-09T13:02:50;7.30;;;4.32;;
69841;SDS011;57138;51.326;-0.068;2022-09-09T13:05:19;9.25;;;4.22;;
69841;SDS011;57138;51.326;-0.068;2022-09-09T13:07:45;10.65;;;4.70;;
69841;SDS011;57138;51.326;-0.068;2022-09-09T13:10:11;11.88;;;4.43;;
69841;SDS011;57138;51.326;-0.068;2022-09-09T13:12:47;9.60;;;4.07;;
69841;SDS011;57138;51.326;-0.068;2022-09-09T13:15:19;9.45;;;4.50;;
69841;SDS011;57138;51.326;-0.068;2022-09-09T13:17:57;13.82;;;4.82;;
69841;SDS011;57138;51.326;-0.068;2022-09-09T13:20:26;10.75;;;5.00;;
69841;SDS011;57138;51.326;-0.068;2022-09-09T13:22:53;10.00;;;4.47;;
69841;SDS011;57138;51.326;-0.068;2022-09-09T13:27:54;11.38;;;4.95;;
69841;SDS011;57138;51.326;-0.068;2022-09-09T13:30:26;6.45;;;3.67;;
69841;SDS011;57138;51.326;-0.068;2022-09-09T13:35:48;9.15;;;3.40;;
69841;SDS011;57138;51.326;-0.068;2022-09-09T13:38:17;7.45;;;3.58;;
69841;SDS011;57138;51.326;-0.068;2022-09-09T13:40:56;3.58;;;1.92;;
69841;SDS011;57138;51.326;-0.068;2022-09-09T13:43:24;5.25;;;2.55;;
69841;SDS011;57138;51.326;-0.068;2022-09-09T13:45:52;10.02;;;3.42;;
69841;SDS011;57138;51.326;-0.068;2022-09-09T13:48:19;5.53;;;2.15;;
69841;SDS011;57138;51.326;-0.068;2022-09-09T13:50:53;4.43;;;2.13;;
69841;SDS011;57138;51.326;-0.068;2022-09-09T13:53:31;6.53;;;2.55;;
69841;SDS011;57138;51.326;-0.068;2022-09-09T13:55:57;8.15;;;2.10;;
69841;SDS011;57138;51.326;-0.068;2022-09-09T13:58:24;5.07;;;1.60;;
69841;SDS011;57138;51.326;-0.068;2022-09-09T14:00:51;7.35;;;1.70;;
69841;SDS011;57138;51.326;-0.068;2022-09-09T14:03:19;3.22;;;1.42;;
69841;SDS011;57138;51.326;-0.068;2022-09-09T14:05:45;9.80;;;2.13;;
69841;SDS011;57138;51.326;-0.068;2022-09-09T14:08:30;10.02;;;2.08;;
69841;SDS011;57138;51.326;-0.068;2022-09-09T14:11:02;6.45;;;1.80;;
69841;SDS011;57138;51.326;-0.068;2022-09-09T14:13:28;5.00;;;1.55;;
69841;SDS011;57138;51.326;-0.068;2022-09-09T14:15:54;6.00;;;1.77;;
69841;SDS011;57138;51.326;-0.068;2022-09-09T14:18:21;5.97;;;1.92;;
69841;SDS011;57138;51.326;-0.068;2022-09-09T14:20:48;13.73;;;2.67;;
69841;SDS011;57138;51.326;-0.068;2022-09-09T14:23:15;7.70;;;1.90;;
69841;SDS011;57138;51.326;-0.068;2022-09-09T14:25:42;5.47;;;1.90;;
69841;SDS011;57138;51.326;-0.068;2022-09-09T14:28:10;11.40;;;2.83;;
69841;SDS011;57138;51.326;-0.068;2022-09-09T14:30:38;5.15;;;1.63;;
69841;SDS011;57138;51.326;-0.068;2022-09-09T14:33:08;2.95;;;1.30;;
69841;SDS011;57138;51.326;-0.068;2022-09-09T14:35:36;3.97;;;1.70;;
69841;SDS011;57138;51.326;-0.068;2022-09-09T14:38:03;5.95;;;1.83;;
69841;SDS011;57138;51.326;-0.068;2022-09-09T14:40:30;7.60;;;2.90;;
69841;SDS011;57138;51.326;-0.068;2022-09-09T14:42:55;10.73;;;2.03;;
69841;SDS011;57138;51.326;-0.068;2022-09-09T14:45:22;5.57;;;1.95;;
69841;SDS011;57138;51.326;-0.068;2022-09-09T14:47:50;4.63;;;1.73;;
69841;SDS011;57138;51.326;-0.068;2022-09-09T14:50:17;4.95;;;1.30;;
69841;SDS011;57138;51.326;-0.068;2022-09-09T14:52:43;5.18;;;1.50;;
69841;SDS011;57138;51.326;-0.068;2022-09-09T14:55:09;3.30;;;1.10;;
69841;SDS011;57138;51.326;-0.068;2022-09-09T14:57:35;6.07;;;1.60;;
69841;SDS011;57138;51.326;-0.068;2022-09-09T15:00:02;5.00;;;1.20;;
69841;SDS011;57138;51.326;-0.068;2022-09-09T15:02:29;5.32;;;1.40;;
69841;SDS011;57138;51.326;-0.068;2022-09-09T15:04:55;5.90;;;1.95;;
69841;SDS011;57138;51.326;-0.068;2022-09-09T15:07:23;6.28;;;1.63;;
69841;SDS011;57138;51.326;-0.068;2022-09-09T15:09:49;4.32;;;1.30;;
69841;SDS011;57138;51.326;-0.068;2022-09-09T15:12:14;5.90;;;1.55;;
69841;SDS011;57138;51.326;-0.068;2022-09-09T15:14:40;5.25;;;1.40;;
69841;SDS011;57138;51.326;-0.068;2022-09-09T15:17:06;4.95;;;1.60;;
69841;SDS011;57138;51.326;-0.068;2022-09-09T15:19:32;3.90;;;1.40;;
69841;SDS011;57138;51.326;-0.068;2022-09-09T15:21:58;4.97;;;1.25;;
69841;SDS011;57138;51.326;-0.068;2022-09-09T15:24:24;5.07;;;1.17;;
69841;SDS011;57138;51.326;-0.068;2022-09-09T15:26:51;5.18;;;1.17;;
69841;SDS011;57138;51.326;-0.068;2022-09-09T15:29:17;3.10;;;1.20;;
69841;SDS011;57138;51.326;-0.068;2022-09-09T15:31:43;5.43;;;1.60;;
69841;SDS011;57138;51.326;-0.068;2022-09-09T15:34:18;3.57;;;1.00;;
69841;SDS011;57138;51.326;-0.068;2022-09-09T15:36:52;5.70;;;1.60;;
69841;SDS011;57138;51.326;-0.068;2022-09-09T15:39:20;6.15;;;1.08;;
69841;SDS011;57138;51.326;-0.068;2022-09-09T15:41:47;4.50;;;1.20;;
69841;SDS011;57138;51.326;-0.068;2022-09-09T15:44:13;4.60;;;1.20;;
69841;SDS011;57138;51.326;-0.068;2022-09-09T15:46:44;4.20;;;1.50;;
69841;SDS011;57138;51.326;-0.068;2022-09-09T15:49:14;4.07;;;1.42;;
69841;SDS011;57138;51.326;-0.068;2022-09-09T15:51:46;4.18;;;1.13;;
69841;SDS011;57138;51.326;-0.068;2022-09-09T15:54:19;3.53;;;1.08;;
69841;SDS011;57138;51.326;-0.068;2022-09-09T15:56:49;6.70;;;1.30;;
69841;SDS011;57138;51.326;-0.068;2022-09-09T15:59:17;3.72;;;1.00;;
69841;SDS011;57138;51.326;-0.068;2022-09-09T16:01:43;2.25;;;0.80;;
69841;SDS011;57138;51.326;-0.068;2022-09-09T16:04:09;5.75;;;1.27;;
69841;SDS011;57138;51.326;-0.068;2022-09-09T16:06:34;4.32;;;1.20;;
69841;SDS011;57138;51.326;-0.068;2022-09-09T16:09:01;2.30;;;0.90;;
69841;SDS011;57138;51.326;-0.068;2022-09-09T16:11:30;3.63;;;1.00;;
69841;SDS011;57138;51.326;-0.068;2022-09-09T16:13:58;5.82;;;1.10;;
69841;SDS011;57138;51.326;-0.068;2022-09-09T16:16:25;7.72;;;1.30;;
69841;SDS011;57138;51.326;-0.068;2022-09-09T16:18:54;7.20;;;2.00;;
69841;SDS011;57138;51.326;-0.068;2022-09-09T16:23:51;7.20;;;1.10;;
69841;SDS011;57138;51.326;-0.068;2022-09-09T16:26:21;6.38;;;1.02;;
69841;SDS011;57138;51.326;-0.068;2022-09-09T16:28:47;4.35;;;1.00;;
69841;SDS011;57138;51.326;-0.068;2022-09-09T16:31:18;3.08;;;0.90;;
69841;SDS011;57138;51.326;-0.068;2022-09-09T16:33:45;4.80;;;0.90;;
69841;SDS011;57138;51.326;-0.068;2022-09-09T16:36:14;7.30;;;1.40;;
69841;SDS011;57138;51.326;-0.068;2022-09-09T16:38:41;2.78;;;0.93;;